sensor_id;sensor_type;location;lat;lon;timestamp;P1;durP1;ratioP1;P2;durP2;ratioP2
22660;SDS011;11497;52.222;21.246;2023-03-19T00:00:51;48.60;;;22.67;;
22660;SDS011;11497;52.222;21.246;2023-03-19T00:03:38;48.72;;;22.95;;
22660;SDS011;11497;52.222;21.246;2023-03-19T00:06:07;50.03;;;24.33;;
22660;SDS011;11497;52.222;21.246;2023-03-19T00:08:35;49.85;;;24.17;;
22660;SDS011;11497;52.222;21.246;2023-03-19T00:11:06;54.92;;;23.35;;
22660;SDS011;11497;52.222;21.246;2023-03-19T00:13:35;51.40;;;23.40;;
22660;SDS011;11497;52.222;21.246;2023-03-19T00:16:04;48.72;;;22.92;;
22660;SDS011;11497;52.222;21.246;2023-03-19T00:18:33;50.65;;;23.75;;
22660;SDS011;11497;52.222;21.246;2023-03-19T00:21:01;79.10;;;35.53;;
22660;SDS011;11497;52.222;21.246;2023-03-19T00:23:29;80.97;;;34.58;;
22660;SDS011;11497;52.222;21.246;2023-03-19T00:25:57;76.80;;;34.67;;
22660;SDS011;11497;52.222;21.246;2023-03-19T00:28:25;70.07;;;31.17;;
22660;SDS011;11497;52.222;21.246;2023-03-19T00:30:53;54.47;;;28.13;;
22660;SDS011;11497;52.222;21.246;2023-03-19T00:33:21;58.20;;;30.38;;
22660;SDS011;11497;52.222;21.246;2023-03-19T00:35:49;85.00;;;43.30;;
22660;SDS011;11497;52.222;21.246;2023-03-19T00:38:19;79.70;;;40.33;;
22660;SDS011;11497;52.222;21.246;2023-03-19T00:40:46;70.43;;;36.63;;
22660;SDS011;11497;52.222;21.246;2023-03-19T00:43:14;71.15;;;35.75;;
22660;SDS011;11497;52.222;21.246;2023-03-19T00:45:42;71.65;;;34.97;;
22660;SDS011;11497;52.222;21.246;2023-03-19T00:48:10;71.35;;;33.60;;
22660;SDS011;11497;52.222;21.246;2023-03-19T00:50:37;65.35;;;30.10;;
22660;SDS011;11497;52.222;21.246;2023-03-19T00:53:06;52.45;;;25.98;;
22660;SDS011;11497;52.222;21.246;2023-03-19T00:55:34;57.50;;;27.23;;
22660;SDS011;11497;52.222;21.246;2023-03-19T00:58:02;56.83;;;27.05;;
22660;SDS011;11497;52.222;21.246;2023-03-19T01:00:32;59.55;;;28.58;;
22660;SDS011;11497;52.222;21.246;2023-03-19T01:03:03;68.13;;;32.20;;
22660;SDS011;11497;52.222;21.246;2023-03-19T01:05:34;66.50;;;32.42;;
22660;SDS011;11497;52.222;21.246;2023-03-19T01:08:02;67.68;;;30.80;;
22660;SDS011;11497;52.222;21.246;2023-03-19T01:10:31;56.78;;;26.15;;
22660;SDS011;11497;52.222;21.246;2023-03-19T01:13:01;52.28;;;24.45;;
22660;SDS011;11497;52.222;21.246;2023-03-19T01:15:29;51.65;;;25.33;;
22660;SDS011;11497;52.222;21.246;2023-03-19T01:17:57;54.38;;;25.63;;
22660;SDS011;11497;52.222;21.246;2023-03-19T01:20:25;47.53;;;23.02;;
22660;SDS011;11497;52.222;21.246;2023-03-19T01:22:53;48.03;;;22.75;;
22660;SDS011;11497;52.222;21.246;2023-03-19T01:25:21;56.22;;;26.92;;
22660;SDS011;11497;52.222;21.246;2023-03-19T01:28:00;45.10;;;22.35;;
22660;SDS011;11497;52.222;21.246;2023-03-19T01:30:28;44.08;;;21.40;;
22660;SDS011;11497;52.222;21.246;2023-03-19T01:33:19;43.50;;;20.92;;
22660;SDS011;11497;52.222;21.246;2023-03-19T01:36:02;42.78;;;20.00;;
22660;SDS011;11497;52.222;21.246;2023-03-19T01:38:50;47.17;;;22.38;;
22660;SDS011;11497;52.222;21.246;2023-03-19T01:41:18;49.63;;;22.98;;
22660;SDS011;11497;52.222;21.246;2023-03-19T01:43:48;49.22;;;22.55;;
22660;SDS011;11497;52.222;21.246;2023-03-19T01:46:45;42.67;;;20.25;;
22660;SDS011;11497;52.222;21.246;2023-03-19T01:49:36;44.28;;;21.15;;
22660;SDS011;11497;52.222;21.246;2023-03-19T01:52:14;50.92;;;25.50;;
22660;SDS011;11497;52.222;21.246;2023-03-19T01:55:05;53.17;;;25.80;;
22660;SDS011;11497;52.222;21.246;2023-03-19T01:58:01;52.15;;;24.02;;
22660;SDS011;11497;52.222;21.246;2023-03-19T02:00:59;59.97;;;27.77;;
22660;SDS011;11497;52.222;21.246;2023-03-19T02:03:27;49.17;;;23.40;;
22660;SDS011;11497;52.222;21.246;2023-03-19T02:06:09;39.38;;;21.13;;
22660;SDS011;11497;52.222;21.246;2023-03-19T02:08:39;41.83;;;21.95;;
22660;SDS011;11497;52.222;21.246;2023-03-19T02:11:08;50.75;;;23.23;;
22660;SDS011;11497;52.222;21.246;2023-03-19T02:13:36;45.33;;;23.67;;
22660;SDS011;11497;52.222;21.246;2023-03-19T02:16:04;47.33;;;23.95;;
22660;SDS011;11497;52.222;21.246;2023-03-19T02:18:33;40.38;;;20.02;;
22660;SDS011;11497;52.222;21.246;2023-03-19T02:26:26;36.78;;;18.83;;
22660;SDS011;11497;52.222;21.246;2023-03-19T02:29:01;42.80;;;19.10;;
22660;SDS011;11497;52.222;21.246;2023-03-19T02:31:33;36.33;;;17.80;;
22660;SDS011;11497;52.222;21.246;2023-03-19T02:34:15;37.47;;;18.35;;
22660;SDS011;11497;52.222;21.246;2023-03-19T02:36:58;41.38;;;18.00;;
22660;SDS011;11497;52.222;21.246;2023-03-19T02:39:30;44.35;;;19.35;;
22660;SDS011;11497;52.222;21.246;2023-03-19T02:42:19;36.47;;;18.05;;
22660;SDS011;11497;52.222;21.246;2023-03-19T02:44:49;39.72;;;19.75;;
22660;SDS011;11497;52.222;21.246;2023-03-19T02:47:17;39.08;;;18.00;;
22660;SDS011;11497;52.222;21.246;2023-03-19T02:49:45;40.38;;;19.20;;
22660;SDS011;11497;52.222;21.246;2023-03-19T02:52:14;38.88;;;19.10;;
22660;SDS011;11497;52.222;21.246;2023-03-19T02:54:42;34.50;;;17.65;;
22660;SDS011;11497;52.222;21.246;2023-03-19T02:57:11;36.97;;;18.17;;
22660;SDS011;11497;52.222;21.246;2023-03-19T02:59:38;39.63;;;19.05;;
22660;SDS011;11497;52.222;21.246;2023-03-19T03:02:06;36.63;;;18.85;;
22660;SDS011;11497;52.222;21.246;2023-03-19T03:04:35;33.78;;;17.55;;
22660;SDS011;11497;52.222;21.246;2023-03-19T03:07:03;33.60;;;18.45;;
22660;SDS011;11497;52.222;21.246;2023-03-19T03:09:31;36.30;;;18.00;;
22660;SDS011;11497;52.222;21.246;2023-03-19T03:11:59;40.88;;;16.98;;
22660;SDS011;11497;52.222;21.246;2023-03-19T03:14:27;39.03;;;17.85;;
22660;SDS011;11497;52.222;21.246;2023-03-19T03:16:55;40.00;;;17.65;;
22660;SDS011;11497;52.222;21.246;2023-03-19T03:19:24;36.63;;;17.00;;
22660;SDS011;11497;52.222;21.246;2023-03-19T03:21:52;39.10;;;17.90;;
22660;SDS011;11497;52.222;21.246;2023-03-19T03:24:20;37.20;;;17.20;;
22660;SDS011;11497;52.222;21.246;2023-03-19T03:26:47;37.70;;;18.25;;
22660;SDS011;11497;52.222;21.246;2023-03-19T03:29:15;38.55;;;17.90;;
22660;SDS011;11497;52.222;21.246;2023-03-19T03:31:44;38.97;;;16.50;;
22660;SDS011;11497;52.222;21.246;2023-03-19T03:34:11;37.53;;;16.85;;
22660;SDS011;11497;52.222;21.246;2023-03-19T03:36:39;35.63;;;17.25;;
22660;SDS011;11497;52.222;21.246;2023-03-19T03:39:07;35.22;;;17.08;;
22660;SDS011;11497;52.222;21.246;2023-03-19T03:41:35;37.55;;;17.42;;
22660;SDS011;11497;52.222;21.246;2023-03-19T03:44:03;44.28;;;18.27;;
22660;SDS011;11497;52.222;21.246;2023-03-19T03:46:34;37.97;;;17.52;;
22660;SDS011;11497;52.222;21.246;2023-03-19T03:49:02;37.40;;;16.30;;
22660;SDS011;11497;52.222;21.246;2023-03-19T03:51:30;34.00;;;17.13;;
22660;SDS011;11497;52.222;21.246;2023-03-19T03:53:58;35.75;;;17.13;;
22660;SDS011;11497;52.222;21.246;2023-03-19T03:56:27;35.15;;;15.63;;
22660;SDS011;11497;52.222;21.246;2023-03-19T03:58:54;36.88;;;15.90;;
22660;SDS011;11497;52.222;21.246;2023-03-19T04:01:22;32.30;;;16.52;;
22660;SDS011;11497;52.222;21.246;2023-03-19T04:03:53;36.78;;;16.65;;
22660;SDS011;11497;52.222;21.246;2023-03-19T04:06:22;32.55;;;16.20;;
22660;SDS011;11497;52.222;21.246;2023-03-19T04:09:10;33.28;;;15.60;;
22660;SDS011;11497;52.222;21.246;2023-03-19T04:11:39;29.58;;;15.82;;
22660;SDS011;11497;52.222;21.246;2023-03-19T04:14:07;33.25;;;15.25;;
22660;SDS011;11497;52.222;21.246;2023-03-19T04:16:37;30.88;;;16.13;;
22660;SDS011;11497;52.222;21.246;2023-03-19T04:19:05;29.27;;;15.02;;
22660;SDS011;11497;52.222;21.246;2023-03-19T04:21:33;37.95;;;16.60;;
22660;SDS011;11497;52.222;21.246;2023-03-19T04:24:01;32.80;;;15.55;;
22660;SDS011;11497;52.222;21.246;2023-03-19T04:26:29;34.45;;;16.00;;
22660;SDS011;11497;52.222;21.246;2023-03-19T04:28:57;31.27;;;16.00;;
22660;SDS011;11497;52.222;21.246;2023-03-19T04:31:26;31.40;;;15.60;;
22660;SDS011;11497;52.222;21.246;2023-03-19T04:33:54;35.60;;;16.60;;
22660;SDS011;11497;52.222;21.246;2023-03-19T04:36:22;36.05;;;15.65;;
22660;SDS011;11497;52.222;21.246;2023-03-19T04:38:49;38.75;;;16.08;;
22660;SDS011;11497;52.222;21.246;2023-03-19T04:41:19;37.95;;;17.42;;
22660;SDS011;11497;52.222;21.246;2023-03-19T04:44:18;37.45;;;16.55;;
22660;SDS011;11497;52.222;21.246;2023-03-19T04:46:46;33.85;;;15.82;;
22660;SDS011;11497;52.222;21.246;2023-03-19T04:49:15;34.60;;;15.65;;
22660;SDS011;11497;52.222;21.246;2023-03-19T04:51:44;34.85;;;17.23;;
22660;SDS011;11497;52.222;21.246;2023-03-19T04:54:12;30.20;;;15.30;;
22660;SDS011;11497;52.222;21.246;2023-03-19T04:56:40;29.33;;;16.00;;
22660;SDS011;11497;52.222;21.246;2023-03-19T04:59:08;37.50;;;17.23;;
22660;SDS011;11497;52.222;21.246;2023-03-19T05:01:36;34.38;;;16.02;;
22660;SDS011;11497;52.222;21.246;2023-03-19T05:04:06;37.92;;;16.48;;
22660;SDS011;11497;52.222;21.246;2023-03-19T05:06:37;29.85;;;14.93;;
22660;SDS011;11497;52.222;21.246;2023-03-19T05:09:05;35.60;;;15.65;;
22660;SDS011;11497;52.222;21.246;2023-03-19T05:11:33;31.73;;;17.27;;
22660;SDS011;11497;52.222;21.246;2023-03-19T05:14:04;33.72;;;16.73;;
22660;SDS011;11497;52.222;21.246;2023-03-19T05:16:52;29.52;;;14.85;;
22660;SDS011;11497;52.222;21.246;2023-03-19T05:19:20;30.13;;;14.88;;
22660;SDS011;11497;52.222;21.246;2023-03-19T05:21:49;29.58;;;15.05;;
22660;SDS011;11497;52.222;21.246;2023-03-19T05:24:22;31.58;;;15.05;;
22660;SDS011;11497;52.222;21.246;2023-03-19T05:26:52;33.85;;;15.57;;
22660;SDS011;11497;52.222;21.246;2023-03-19T05:29:40;34.95;;;16.23;;
22660;SDS011;11497;52.222;21.246;2023-03-19T05:32:28;29.75;;;15.25;;
22660;SDS011;11497;52.222;21.246;2023-03-19T05:34:59;36.78;;;15.95;;
22660;SDS011;11497;52.222;21.246;2023-03-19T05:37:28;28.95;;;15.27;;
22660;SDS011;11497;52.222;21.246;2023-03-19T05:39:57;32.28;;;15.23;;
22660;SDS011;11497;52.222;21.246;2023-03-19T05:42:25;32.03;;;15.85;;
22660;SDS011;11497;52.222;21.246;2023-03-19T05:44:55;29.15;;;15.25;;
22660;SDS011;11497;52.222;21.246;2023-03-19T05:47:26;29.10;;;16.17;;
22660;SDS011;11497;52.222;21.246;2023-03-19T05:49:56;34.00;;;15.60;;
22660;SDS011;11497;52.222;21.246;2023-03-19T05:52:24;27.92;;;15.23;;
22660;SDS011;11497;52.222;21.246;2023-03-19T05:54:55;26.90;;;14.18;;
22660;SDS011;11497;52.222;21.246;2023-03-19T05:57:34;27.08;;;15.13;;
22660;SDS011;11497;52.222;21.246;2023-03-19T06:00:12;27.67;;;13.98;;
22660;SDS011;11497;52.222;21.246;2023-03-19T06:02:41;25.52;;;14.05;;
22660;SDS011;11497;52.222;21.246;2023-03-19T06:05:25;32.22;;;14.68;;
22660;SDS011;11497;52.222;21.246;2023-03-19T06:07:58;25.33;;;13.70;;
22660;SDS011;11497;52.222;21.246;2023-03-19T06:10:35;29.65;;;14.55;;
22660;SDS011;11497;52.222;21.246;2023-03-19T06:13:08;24.75;;;13.48;;
22660;SDS011;11497;52.222;21.246;2023-03-19T06:15:39;24.65;;;14.63;;
22660;SDS011;11497;52.222;21.246;2023-03-19T06:18:37;26.70;;;14.32;;
22660;SDS011;11497;52.222;21.246;2023-03-19T06:21:08;25.48;;;14.52;;
22660;SDS011;11497;52.222;21.246;2023-03-19T06:23:36;27.10;;;14.60;;
22660;SDS011;11497;52.222;21.246;2023-03-19T06:26:05;27.75;;;14.45;;
22660;SDS011;11497;52.222;21.246;2023-03-19T06:28:41;25.33;;;14.82;;
22660;SDS011;11497;52.222;21.246;2023-03-19T06:31:09;24.15;;;14.13;;
22660;SDS011;11497;52.222;21.246;2023-03-19T06:33:53;30.33;;;14.57;;
22660;SDS011;11497;52.222;21.246;2023-03-19T06:36:24;27.50;;;14.98;;
22660;SDS011;11497;52.222;21.246;2023-03-19T06:38:53;26.80;;;15.63;;
22660;SDS011;11497;52.222;21.246;2023-03-19T06:41:21;28.25;;;16.40;;
22660;SDS011;11497;52.222;21.246;2023-03-19T06:43:51;25.88;;;14.27;;
22660;SDS011;11497;52.222;21.246;2023-03-19T06:46:18;22.60;;;14.15;;
22660;SDS011;11497;52.222;21.246;2023-03-19T06:48:46;27.73;;;14.05;;
22660;SDS011;11497;52.222;21.246;2023-03-19T06:51:14;25.98;;;13.88;;
22660;SDS011;11497;52.222;21.246;2023-03-19T06:53:42;27.63;;;14.35;;
22660;SDS011;11497;52.222;21.246;2023-03-19T06:56:09;27.13;;;14.88;;
22660;SDS011;11497;52.222;21.246;2023-03-19T06:58:38;28.23;;;14.68;;
22660;SDS011;11497;52.222;21.246;2023-03-19T07:01:05;24.63;;;13.48;;
22660;SDS011;11497;52.222;21.246;2023-03-19T07:03:35;25.33;;;14.00;;
22660;SDS011;11497;52.222;21.246;2023-03-19T07:06:02;23.55;;;14.45;;
22660;SDS011;11497;52.222;21.246;2023-03-19T07:08:30;27.58;;;14.80;;
22660;SDS011;11497;52.222;21.246;2023-03-19T07:11:05;27.33;;;15.55;;
22660;SDS011;11497;52.222;21.246;2023-03-19T07:13:33;27.17;;;14.45;;
22660;SDS011;11497;52.222;21.246;2023-03-19T07:16:01;28.40;;;15.20;;
22660;SDS011;11497;52.222;21.246;2023-03-19T07:18:29;24.67;;;14.77;;
22660;SDS011;11497;52.222;21.246;2023-03-19T07:20:57;26.42;;;15.00;;
22660;SDS011;11497;52.222;21.246;2023-03-19T07:23:24;27.27;;;15.77;;
22660;SDS011;11497;52.222;21.246;2023-03-19T07:25:52;28.90;;;16.35;;
22660;SDS011;11497;52.222;21.246;2023-03-19T07:28:20;27.55;;;15.57;;
22660;SDS011;11497;52.222;21.246;2023-03-19T07:30:50;26.38;;;14.88;;
22660;SDS011;11497;52.222;21.246;2023-03-19T07:33:19;30.10;;;15.65;;
22660;SDS011;11497;52.222;21.246;2023-03-19T07:35:47;28.67;;;15.30;;
22660;SDS011;11497;52.222;21.246;2023-03-19T07:38:15;25.40;;;15.27;;
22660;SDS011;11497;52.222;21.246;2023-03-19T07:40:43;25.42;;;14.38;;
22660;SDS011;11497;52.222;21.246;2023-03-19T07:43:26;27.80;;;15.13;;
22660;SDS011;11497;52.222;21.246;2023-03-19T07:45:54;28.33;;;14.77;;
22660;SDS011;11497;52.222;21.246;2023-03-19T07:48:22;25.20;;;14.93;;
22660;SDS011;11497;52.222;21.246;2023-03-19T07:50:50;26.33;;;14.98;;
22660;SDS011;11497;52.222;21.246;2023-03-19T07:53:18;24.65;;;14.60;;
22660;SDS011;11497;52.222;21.246;2023-03-19T07:55:46;25.27;;;15.35;;
22660;SDS011;11497;52.222;21.246;2023-03-19T07:58:14;26.00;;;14.80;;
22660;SDS011;11497;52.222;21.246;2023-03-19T08:00:42;24.67;;;15.18;;
22660;SDS011;11497;52.222;21.246;2023-03-19T08:03:11;25.77;;;15.15;;
22660;SDS011;11497;52.222;21.246;2023-03-19T08:05:38;22.38;;;14.85;;
22660;SDS011;11497;52.222;21.246;2023-03-19T08:08:06;21.20;;;14.35;;
22660;SDS011;11497;52.222;21.246;2023-03-19T08:10:34;23.30;;;14.82;;
22660;SDS011;11497;52.222;21.246;2023-03-19T08:13:04;22.30;;;14.43;;
22660;SDS011;11497;52.222;21.246;2023-03-19T08:15:32;21.85;;;13.77;;
22660;SDS011;11497;52.222;21.246;2023-03-19T08:18:01;22.05;;;14.52;;
22660;SDS011;11497;52.222;21.246;2023-03-19T08:20:30;24.92;;;14.98;;
22660;SDS011;11497;52.222;21.246;2023-03-19T08:22:59;22.65;;;14.60;;
22660;SDS011;11497;52.222;21.246;2023-03-19T08:25:27;22.95;;;14.27;;
22660;SDS011;11497;52.222;21.246;2023-03-19T08:27:59;23.42;;;13.70;;
22660;SDS011;11497;52.222;21.246;2023-03-19T08:30:27;21.60;;;14.07;;
22660;SDS011;11497;52.222;21.246;2023-03-19T08:32:54;23.02;;;14.45;;
22660;SDS011;11497;52.222;21.246;2023-03-19T08:35:23;21.90;;;14.20;;
22660;SDS011;11497;52.222;21.246;2023-03-19T08:37:54;22.40;;;14.25;;
22660;SDS011;11497;52.222;21.246;2023-03-19T08:40:22;23.20;;;14.05;;
22660;SDS011;11497;52.222;21.246;2023-03-19T08:42:50;22.40;;;13.95;;
22660;SDS011;11497;52.222;21.246;2023-03-19T08:45:19;19.90;;;14.52;;
22660;SDS011;11497;52.222;21.246;2023-03-19T08:47:47;21.75;;;14.27;;
22660;SDS011;11497;52.222;21.246;2023-03-19T08:50:16;24.70;;;14.73;;
22660;SDS011;11497;52.222;21.246;2023-03-19T08:52:44;20.15;;;14.38;;
22660;SDS011;11497;52.222;21.246;2023-03-19T08:55:12;23.13;;;14.43;;
22660;SDS011;11497;52.222;21.246;2023-03-19T08:57:40;21.70;;;14.85;;
22660;SDS011;11497;52.222;21.246;2023-03-19T09:00:08;19.67;;;14.85;;
22660;SDS011;11497;52.222;21.246;2023-03-19T09:02:36;22.70;;;14.65;;
22660;SDS011;11497;52.222;21.246;2023-03-19T09:05:06;19.88;;;13.38;;
22660;SDS011;11497;52.222;21.246;2023-03-19T09:07:34;19.23;;;13.40;;
22660;SDS011;11497;52.222;21.246;2023-03-19T09:10:02;22.33;;;13.70;;
22660;SDS011;11497;52.222;21.246;2023-03-19T09:12:30;21.42;;;13.73;;
22660;SDS011;11497;52.222;21.246;2023-03-19T09:14:58;21.35;;;14.27;;
22660;SDS011;11497;52.222;21.246;2023-03-19T09:17:26;19.63;;;13.55;;
22660;SDS011;11497;52.222;21.246;2023-03-19T09:19:53;20.08;;;13.43;;
22660;SDS011;11497;52.222;21.246;2023-03-19T09:22:21;20.75;;;13.43;;
22660;SDS011;11497;52.222;21.246;2023-03-19T09:24:49;20.98;;;13.52;;
22660;SDS011;11497;52.222;21.246;2023-03-19T09:27:17;20.92;;;13.55;;
22660;SDS011;11497;52.222;21.246;2023-03-19T09:29:46;18.13;;;12.82;;
22660;SDS011;11497;52.222;21.246;2023-03-19T09:32:14;19.10;;;12.95;;
22660;SDS011;11497;52.222;21.246;2023-03-19T09:34:41;18.65;;;13.25;;
22660;SDS011;11497;52.222;21.246;2023-03-19T09:37:09;20.00;;;12.85;;
22660;SDS011;11497;52.222;21.246;2023-03-19T09:39:37;19.98;;;12.80;;
22660;SDS011;11497;52.222;21.246;2023-03-19T09:42:26;19.63;;;12.82;;
22660;SDS011;11497;52.222;21.246;2023-03-19T09:45:12;18.40;;;12.65;;
22660;SDS011;11497;52.222;21.246;2023-03-19T09:47:42;21.42;;;13.15;;
22660;SDS011;11497;52.222;21.246;2023-03-19T09:50:13;20.70;;;13.13;;
22660;SDS011;11497;52.222;21.246;2023-03-19T09:52:48;18.13;;;12.23;;
22660;SDS011;11497;52.222;21.246;2023-03-19T09:55:31;19.55;;;12.68;;
22660;SDS011;11497;52.222;21.246;2023-03-19T10:00:43;20.25;;;12.48;;
22660;SDS011;11497;52.222;21.246;2023-03-19T10:12:19;18.25;;;11.88;;
22660;SDS011;11497;52.222;21.246;2023-03-19T10:17:55;21.15;;;13.48;;
22660;SDS011;11497;52.222;21.246;2023-03-19T10:20:29;25.30;;;12.98;;
22660;SDS011;11497;52.222;21.246;2023-03-19T10:26:01;19.98;;;13.13;;
22660;SDS011;11497;52.222;21.246;2023-03-19T10:28:31;19.85;;;13.00;;
22660;SDS011;11497;52.222;21.246;2023-03-19T10:31:00;19.27;;;13.10;;
22660;SDS011;11497;52.222;21.246;2023-03-19T10:36:38;19.05;;;13.40;;
22660;SDS011;11497;52.222;21.246;2023-03-19T10:39:05;23.52;;;12.88;;
22660;SDS011;11497;52.222;21.246;2023-03-19T10:45:08;18.38;;;12.32;;
22660;SDS011;11497;52.222;21.246;2023-03-19T10:47:15;19.08;;;12.63;;
22660;SDS011;11497;52.222;21.246;2023-03-19T10:49:45;20.05;;;11.88;;
22660;SDS011;11497;52.222;21.246;2023-03-19T10:52:16;19.88;;;12.02;;
22660;SDS011;11497;52.222;21.246;2023-03-19T10:54:53;20.10;;;11.25;;
22660;SDS011;11497;52.222;21.246;2023-03-19T10:57:27;22.55;;;11.90;;
22660;SDS011;11497;52.222;21.246;2023-03-19T11:00:14;18.92;;;12.30;;
22660;SDS011;11497;52.222;21.246;2023-03-19T11:02:52;25.20;;;11.77;;
22660;SDS011;11497;52.222;21.246;2023-03-19T11:05:22;18.30;;;10.90;;
22660;SDS011;11497;52.222;21.246;2023-03-19T11:08:01;19.50;;;10.85;;
22660;SDS011;11497;52.222;21.246;2023-03-19T11:10:32;15.88;;;10.20;;
22660;SDS011;11497;52.222;21.246;2023-03-19T11:13:05;15.82;;;10.43;;
22660;SDS011;11497;52.222;21.246;2023-03-19T11:15:53;13.65;;;10.05;;
22660;SDS011;11497;52.222;21.246;2023-03-19T11:18:29;17.75;;;9.65;;
22660;SDS011;11497;52.222;21.246;2023-03-19T11:21:07;15.57;;;10.27;;
22660;SDS011;11497;52.222;21.246;2023-03-19T11:24:00;16.80;;;9.85;;
22660;SDS011;11497;52.222;21.246;2023-03-19T11:26:29;16.92;;;9.73;;
22660;SDS011;11497;52.222;21.246;2023-03-19T11:29:02;16.95;;;9.52;;
22660;SDS011;11497;52.222;21.246;2023-03-19T11:31:36;13.90;;;9.60;;
22660;SDS011;11497;52.222;21.246;2023-03-19T11:37:07;13.98;;;8.48;;
22660;SDS011;11497;52.222;21.246;2023-03-19T11:42:34;16.20;;;9.43;;
22660;SDS011;11497;52.222;21.246;2023-03-19T11:45:29;20.50;;;10.02;;
22660;SDS011;11497;52.222;21.246;2023-03-19T11:48:15;14.82;;;10.02;;
22660;SDS011;11497;52.222;21.246;2023-03-19T11:50:58;15.55;;;9.45;;
22660;SDS011;11497;52.222;21.246;2023-03-19T11:56:42;13.60;;;9.43;;
22660;SDS011;11497;52.222;21.246;2023-03-19T12:02:31;19.10;;;10.25;;
22660;SDS011;11497;52.222;21.246;2023-03-19T12:16:03;16.23;;;10.07;;
22660;SDS011;11497;52.222;21.246;2023-03-19T12:21:38;18.13;;;10.82;;
22660;SDS011;11497;52.222;21.246;2023-03-19T12:35:52;14.75;;;9.68;;
22660;SDS011;11497;52.222;21.246;2023-03-19T12:38:23;14.82;;;9.05;;
22660;SDS011;11497;52.222;21.246;2023-03-19T12:43:46;13.57;;;9.25;;
22660;SDS011;11497;52.222;21.246;2023-03-19T12:46:38;13.50;;;8.85;;
22660;SDS011;11497;52.222;21.246;2023-03-19T12:49:28;15.63;;;9.25;;
22660;SDS011;11497;52.222;21.246;2023-03-19T12:52:25;13.20;;;9.00;;
22660;SDS011;11497;52.222;21.246;2023-03-19T12:55:24;14.35;;;9.10;;
22660;SDS011;11497;52.222;21.246;2023-03-19T13:01:09;13.25;;;8.85;;
22660;SDS011;11497;52.222;21.246;2023-03-19T13:06:46;12.35;;;8.23;;
22660;SDS011;11497;52.222;21.246;2023-03-19T13:12:10;13.85;;;8.38;;
22660;SDS011;11497;52.222;21.246;2023-03-19T13:14:58;14.73;;;8.07;;
22660;SDS011;11497;52.222;21.246;2023-03-19T13:23:00;14.60;;;8.38;;
22660;SDS011;11497;52.222;21.246;2023-03-19T13:25:31;13.90;;;8.80;;
22660;SDS011;11497;52.222;21.246;2023-03-19T13:28:10;13.70;;;8.05;;
22660;SDS011;11497;52.222;21.246;2023-03-19T13:33:50;13.38;;;8.27;;
22660;SDS011;11497;52.222;21.246;2023-03-19T13:36:30;13.48;;;7.78;;
22660;SDS011;11497;52.222;21.246;2023-03-19T13:39:03;18.35;;;8.38;;
22660;SDS011;11497;52.222;21.246;2023-03-19T13:41:46;13.05;;;8.00;;
22660;SDS011;11497;52.222;21.246;2023-03-19T13:46:48;13.07;;;7.82;;
22660;SDS011;11497;52.222;21.246;2023-03-19T13:52:01;12.10;;;7.97;;
22660;SDS011;11497;52.222;21.246;2023-03-19T13:54:38;11.95;;;7.63;;
22660;SDS011;11497;52.222;21.246;2023-03-19T13:59:41;12.90;;;8.70;;
22660;SDS011;11497;52.222;21.246;2023-03-19T14:05:13;15.05;;;8.52;;
22660;SDS011;11497;52.222;21.246;2023-03-19T14:07:50;12.55;;;8.20;;
22660;SDS011;11497;52.222;21.246;2023-03-19T14:10:27;12.43;;;8.02;;
22660;SDS011;11497;52.222;21.246;2023-03-19T14:13:04;11.85;;;7.50;;
22660;SDS011;11497;52.222;21.246;2023-03-19T14:15:37;10.73;;;7.60;;
22660;SDS011;11497;52.222;21.246;2023-03-19T14:18:15;15.68;;;7.95;;
22660;SDS011;11497;52.222;21.246;2023-03-19T14:20:56;18.93;;;7.93;;
22660;SDS011;11497;52.222;21.246;2023-03-19T14:23:27;14.52;;;7.97;;
22660;SDS011;11497;52.222;21.246;2023-03-19T14:31:52;12.68;;;8.20;;
22660;SDS011;11497;52.222;21.246;2023-03-19T14:34:39;15.23;;;8.80;;
22660;SDS011;11497;52.222;21.246;2023-03-19T14:39:44;13.20;;;8.18;;
22660;SDS011;11497;52.222;21.246;2023-03-19T14:42:20;11.20;;;7.35;;
22660;SDS011;11497;52.222;21.246;2023-03-19T14:59:01;10.98;;;7.60;;
22660;SDS011;11497;52.222;21.246;2023-03-19T15:01:33;15.02;;;7.50;;
22660;SDS011;11497;52.222;21.246;2023-03-19T15:04:10;13.68;;;7.55;;
22660;SDS011;11497;52.222;21.246;2023-03-19T15:06:42;11.23;;;7.20;;
22660;SDS011;11497;52.222;21.246;2023-03-19T15:17:29;13.48;;;7.43;;
22660;SDS011;11497;52.222;21.246;2023-03-19T15:19:58;13.15;;;7.35;;
22660;SDS011;11497;52.222;21.246;2023-03-19T15:22:30;11.13;;;7.63;;
22660;SDS011;11497;52.222;21.246;2023-03-19T15:25:09;11.20;;;7.00;;
22660;SDS011;11497;52.222;21.246;2023-03-19T15:27:40;13.35;;;6.78;;
22660;SDS011;11497;52.222;21.246;2023-03-19T15:30:18;13.73;;;7.18;;
22660;SDS011;11497;52.222;21.246;2023-03-19T15:32:54;12.85;;;7.28;;
22660;SDS011;11497;52.222;21.246;2023-03-19T15:35:40;14.15;;;6.90;;
22660;SDS011;11497;52.222;21.246;2023-03-19T15:38:09;9.73;;;6.93;;
22660;SDS011;11497;52.222;21.246;2023-03-19T15:40:40;8.95;;;6.38;;
22660;SDS011;11497;52.222;21.246;2023-03-19T15:43:09;9.52;;;6.03;;
22660;SDS011;11497;52.222;21.246;2023-03-19T15:45:39;10.75;;;7.38;;
22660;SDS011;11497;52.222;21.246;2023-03-19T15:48:19;9.57;;;6.32;;
22660;SDS011;11497;52.222;21.246;2023-03-19T15:50:57;10.27;;;6.78;;
22660;SDS011;11497;52.222;21.246;2023-03-19T15:53:28;13.02;;;7.07;;
22660;SDS011;11497;52.222;21.246;2023-03-19T15:55:59;10.00;;;6.60;;
22660;SDS011;11497;52.222;21.246;2023-03-19T15:58:29;9.23;;;6.18;;
22660;SDS011;11497;52.222;21.246;2023-03-19T16:01:04;9.73;;;6.78;;
22660;SDS011;11497;52.222;21.246;2023-03-19T16:03:39;13.73;;;7.00;;
22660;SDS011;11497;52.222;21.246;2023-03-19T16:06:22;11.20;;;6.47;;
22660;SDS011;11497;52.222;21.246;2023-03-19T16:08:54;12.98;;;6.65;;
22660;SDS011;11497;52.222;21.246;2023-03-19T16:11:33;13.02;;;6.90;;
22660;SDS011;11497;52.222;21.246;2023-03-19T16:14:10;10.05;;;7.07;;
22660;SDS011;11497;52.222;21.246;2023-03-19T16:16:44;12.07;;;6.57;;
22660;SDS011;11497;52.222;21.246;2023-03-19T16:22:04;12.75;;;7.20;;
22660;SDS011;11497;52.222;21.246;2023-03-19T16:24:47;10.75;;;7.28;;
22660;SDS011;11497;52.222;21.246;2023-03-19T16:27:18;9.77;;;6.85;;
22660;SDS011;11497;52.222;21.246;2023-03-19T16:29:57;9.63;;;6.32;;
22660;SDS011;11497;52.222;21.246;2023-03-19T16:32:26;14.45;;;6.45;;
22660;SDS011;11497;52.222;21.246;2023-03-19T16:34:56;11.63;;;6.88;;
22660;SDS011;11497;52.222;21.246;2023-03-19T16:47:49;17.50;;;7.55;;
22660;SDS011;11497;52.222;21.246;2023-03-19T16:50:19;30.65;;;8.55;;
22660;SDS011;11497;52.222;21.246;2023-03-19T16:52:51;23.55;;;8.98;;
22660;SDS011;11497;52.222;21.246;2023-03-19T16:55:23;28.15;;;9.30;;
22660;SDS011;11497;52.222;21.246;2023-03-19T17:01:15;45.60;;;14.25;;
22660;SDS011;11497;52.222;21.246;2023-03-19T17:03:51;41.30;;;11.93;;
22660;SDS011;11497;52.222;21.246;2023-03-19T17:06:20;56.53;;;12.85;;